Misty Dawn — WDC8124 — position and weather

sailwx.info

Track history (hours):
 
Tides and Currents Weather Stations Pressure Air Temp Water Temp Dewpoint Dewpoint Depression Visibility Wind Speed Wind Dir Waves Ship Positions

Misty Dawn

Owner: Katahdin, Inc., Seattle, WA. More information available from US FCC via Universal Licensing System and Coast Guard Vessel Documentation Center.

Last reported at 2016-Sep-25 04:33 UTC. Time now 2016-Sep-27 15:36 UTC.
Position N 48°22' W 124°37'.

Length 22 m; draft 25.5 m.

MMSI: 367082010.

Date/timePositionNaut miles runAvg speedWind from/ knotsBaromVisibWave heightAir tempDewpointWater temp
2016-Sep-25 04:33N 48°22' W 124°37'0 0.0
2016-Sep-25 00:33N 48°22' W 124°37'0 0.0
2016-Sep-24 22:33N 48°22' W 124°37'0 0.0
2016-Sep-24 21:33N 48°22' W 124°37'0 0.0
2016-Sep-24 19:33N 48°22' W 124°37'0 0.0
2016-Sep-24 18:33N 48°22' W 124°37'0 0.0
2016-Sep-24 17:33N 48°22' W 124°37'0 0.0
2016-Sep-24 16:33N 48°22' W 124°37'0 0.0
2016-Sep-24 14:33N 48°22' W 124°37'0 0.0
2016-Sep-24 12:33N 48°22' W 124°37'0 0.0
2016-Sep-24 10:33N 48°22' W 124°37'0 0.0
2016-Sep-24 09:33N 48°22' W 124°37'47 7.9
2016-Sep-24 03:33N 48°10' W 123°28'1010.0
2016-Sep-24 02:33N 48°11' W 123°13'10 9.5
2016-Sep-24 01:33N 48°11' W 122°59'10 9.7
2016-Sep-24 00:33N 48°09' W 122°45'33 6.5
2016-Sep-23 19:33N 47°40' W 122°23'0 0.0
2016-Sep-23 17:33N 47°40' W 122°23'0 0.0
2016-Sep-23 16:33N 47°40' W 122°23'0 0.0
2016-Sep-23 15:33N 47°40' W 122°23'0 0.0
2016-Sep-23 13:33N 47°40' W 122°23'0 0.0
2016-Sep-23 09:33N 47°40' W 122°23'0 0.0
2016-Sep-23 06:33N 47°40' W 122°23'0 0.0
2016-Sep-23 04:33N 47°40' W 122°23'0 0.0
2016-Sep-23 03:33N 47°40' W 122°23'0 0.0
2016-Sep-23 02:33N 47°40' W 122°23'0 0.0
2016-Sep-23 01:33N 47°40' W 122°23'0 0.0
2016-Sep-23 00:33N 47°40' W 122°23'0 0.0
2016-Sep-22 23:33N 47°40' W 122°23'0 0.0
2016-Sep-22 20:33N 47°40' W 122°23'0 0.0
2016-Sep-22 12:33N 47°40' W 122°23'0 0.0
2016-Sep-22 04:33N 47°40' W 122°23'0 0.0
2016-Sep-22 03:33N 47°40' W 122°23'0 0.0
2016-Sep-22 00:33N 47°40' W 122°23'0 0.0
2016-Sep-21 23:33N 47°40' W 122°23'0 0.0
2016-Sep-21 22:33N 47°40' W 122°23'0 0.0
2016-Sep-21 19:33N 47°40' W 122°23'0 0.0
2016-Sep-21 16:33N 47°40' W 122°23'0 0.0
2016-Sep-21 09:33N 47°40' W 122°23'0 0.0
2016-Sep-21 08:33N 47°40' W 122°23'0 0.0
2016-Sep-21 05:34N 47°40' W 122°23'0 0.0
2016-Sep-21 03:33N 47°40' W 122°23'0 0.0
2016-Sep-21 02:33N 47°40' W 122°23'1 0.1
2016-Sep-20 17:33N 47°40' W 122°23'1 0.3
2016-Sep-20 14:33N 47°40' W 122°25'9 8.8
2016-Sep-20 13:33N 47°49' W 122°28'3110.2
2016-Sep-20 10:33N 48°11' W 123°00'18 9.2
2016-Sep-20 08:33N 48°11' W 123°28'9 8.7
2016-Sep-20 07:33N 48°11' W 123°41'8 7.8
2016-Sep-20 06:33N 48°11' W 123°52'31 7.9
2016-Sep-20 02:33N 48°22' W 124°37'0 0.0
2016-Sep-19 23:33N 48°22' W 124°37'0 0.0
2016-Sep-19 19:33N 48°22' W 124°37'0 0.0
2016-Sep-19 18:33N 48°22' W 124°37'0 0.0
2016-Sep-19 16:33N 48°22' W 124°37'0 0.0
2016-Sep-19 14:33N 48°22' W 124°37'0 0.0
2016-Sep-19 13:33N 48°22' W 124°37'0 0.0
2016-Sep-19 12:33N 48°22' W 124°37'0 0.0
2016-Sep-19 11:33N 48°22' W 124°37'0 0.0
2016-Sep-19 09:33N 48°22' W 124°37'0 0.0
2016-Sep-19 07:33N 48°22' W 124°37'0 0.0
2016-Sep-19 06:33N 48°22' W 124°37'0 0.0
2016-Sep-19 03:33N 48°22' W 124°37'0 0.0
2016-Sep-19 02:33N 48°22' W 124°37'0 0.0
2016-Sep-19 00:33N 48°22' W 124°37'0 0.0
2016-Sep-18 19:33N 48°22' W 124°37'0 0.0
2016-Sep-18 15:33N 48°22' W 124°37'0 0.0
2016-Sep-18 14:33N 48°22' W 124°37'0 0.0
2016-Sep-18 10:33N 48°22' W 124°37'0 0.0
2016-Sep-18 09:33N 48°22' W 124°37'0 0.0
2016-Sep-18 02:33N 48°22' W 124°37'0 0.0
2016-Sep-18 01:33N 48°22' W 124°37'0 0.0
2016-Sep-18 00:33N 48°22' W 124°37'0 0.0
2016-Sep-17 22:33N 48°22' W 124°37'0 0.0
2016-Sep-17 21:33N 48°22' W 124°37'0 0.0
2016-Sep-17 20:33N 48°22' W 124°37'0 0.0
2016-Sep-17 19:16N 48°22' W 124°37'0 0.0
2016-Sep-17 13:33N 48°22' W 124°37'0 0.0
2016-Sep-17 12:33N 48°22' W 124°37'0 0.0
2016-Sep-17 10:33N 48°22' W 124°37'0 0.0
2016-Sep-17 09:33N 48°22' W 124°37'0 0.0
2016-Sep-17 08:33N 48°22' W 124°37'0 0.0
2016-Sep-17 07:34N 48°22' W 124°37'0 0.0
2016-Sep-17 05:33N 48°22' W 124°37'0 0.0
2016-Sep-17 04:33N 48°22' W 124°37'0 0.0
2016-Sep-17 00:33N 48°22' W 124°37'0 0.0
2016-Sep-16 17:33N 48°22' W 124°37'0 0.0
2016-Sep-16 15:33N 48°22' W 124°37'0 0.0
2016-Sep-16 12:33N 48°22' W 124°37'0 0.0
2016-Sep-16 09:33N 48°22' W 124°37'0 0.0
2016-Sep-16 07:33N 48°22' W 124°37'0 0.0
2016-Sep-16 03:33N 48°22' W 124°37'4 4.5
2016-Sep-16 02:33N 48°25' W 124°42'18 9.2
2016-Sep-16 00:33N 48°33' W 125°07'19 9.7
2016-Sep-15 22:33N 48°42' W 125°33'10 9.7
2016-Sep-15 21:32N 48°47' W 125°46'10 9.7
2016-Sep-15 20:33N 48°51' W 125°59'  
Track history (hours):
 
Tides and Currents Weather Stations Pressure Air Temp Water Temp Dewpoint Dewpoint Depression Visibility Wind Speed Wind Dir Waves Ship Positions

Misty Dawn

Owner: Katahdin, Inc., Seattle, WA. More information available from US FCC via Universal Licensing System and Coast Guard Vessel Documentation Center.

Last reported at 2016-Sep-25 04:33 UTC. Time now 2016-Sep-27 15:36 UTC.
Position N 48°22' W 124°37'.

Length 22 m; draft 25.5 m.

MMSI: 367082010.

Date/timePositionNaut miles runAvg speedWind from/ knotsBaromVisibWave heightAir tempDewpointWater temp
2016-Sep-25 04:33N 48°22' W 124°37'0 0.0
2016-Sep-25 00:33N 48°22' W 124°37'0 0.0
2016-Sep-24 22:33N 48°22' W 124°37'0 0.0
2016-Sep-24 21:33N 48°22' W 124°37'0 0.0
2016-Sep-24 19:33N 48°22' W 124°37'0 0.0
2016-Sep-24 18:33N 48°22' W 124°37'0 0.0
2016-Sep-24 17:33N 48°22' W 124°37'0 0.0
2016-Sep-24 16:33N 48°22' W 124°37'0 0.0
2016-Sep-24 14:33N 48°22' W 124°37'0 0.0
2016-Sep-24 12:33N 48°22' W 124°37'0 0.0
2016-Sep-24 10:33N 48°22' W 124°37'0 0.0
2016-Sep-24 09:33N 48°22' W 124°37'47 7.9
2016-Sep-24 03:33N 48°10' W 123°28'1010.0
2016-Sep-24 02:33N 48°11' W 123°13'10 9.5
2016-Sep-24 01:33N 48°11' W 122°59'10 9.7
2016-Sep-24 00:33N 48°09' W 122°45'33 6.5
2016-Sep-23 19:33N 47°40' W 122°23'0 0.0
2016-Sep-23 17:33N 47°40' W 122°23'0 0.0
2016-Sep-23 16:33N 47°40' W 122°23'0 0.0
2016-Sep-23 15:33N 47°40' W 122°23'0 0.0
2016-Sep-23 13:33N 47°40' W 122°23'0 0.0
2016-Sep-23 09:33N 47°40' W 122°23'0 0.0
2016-Sep-23 06:33N 47°40' W 122°23'0 0.0
2016-Sep-23 04:33N 47°40' W 122°23'0 0.0
2016-Sep-23 03:33N 47°40' W 122°23'0 0.0
2016-Sep-23 02:33N 47°40' W 122°23'0 0.0
2016-Sep-23 01:33N 47°40' W 122°23'0 0.0
2016-Sep-23 00:33N 47°40' W 122°23'0 0.0
2016-Sep-22 23:33N 47°40' W 122°23'0 0.0
2016-Sep-22 20:33N 47°40' W 122°23'0 0.0
2016-Sep-22 12:33N 47°40' W 122°23'0 0.0
2016-Sep-22 04:33N 47°40' W 122°23'0 0.0
2016-Sep-22 03:33N 47°40' W 122°23'0 0.0
2016-Sep-22 00:33N 47°40' W 122°23'0 0.0
2016-Sep-21 23:33N 47°40' W 122°23'0 0.0
2016-Sep-21 22:33N 47°40' W 122°23'0 0.0
2016-Sep-21 19:33N 47°40' W 122°23'0 0.0
2016-Sep-21 16:33N 47°40' W 122°23'0 0.0
2016-Sep-21 09:33N 47°40' W 122°23'0 0.0
2016-Sep-21 08:33N 47°40' W 122°23'0 0.0
2016-Sep-21 05:34N 47°40' W 122°23'0 0.0
2016-Sep-21 03:33N 47°40' W 122°23'0 0.0
2016-Sep-21 02:33N 47°40' W 122°23'1 0.1
2016-Sep-20 17:33N 47°40' W 122°23'1 0.3
2016-Sep-20 14:33N 47°40' W 122°25'9 8.8
2016-Sep-20 13:33N 47°49' W 122°28'3110.2
2016-Sep-20 10:33N 48°11' W 123°00'18 9.2
2016-Sep-20 08:33N 48°11' W 123°28'9 8.7
2016-Sep-20 07:33N 48°11' W 123°41'8 7.8
2016-Sep-20 06:33N 48°11' W 123°52'31 7.9
2016-Sep-20 02:33N 48°22' W 124°37'0 0.0
2016-Sep-19 23:33N 48°22' W 124°37'0 0.0
2016-Sep-19 19:33N 48°22' W 124°37'0 0.0
2016-Sep-19 18:33N 48°22' W 124°37'0 0.0
2016-Sep-19 16:33N 48°22' W 124°37'0 0.0
2016-Sep-19 14:33N 48°22' W 124°37'0 0.0
2016-Sep-19 13:33N 48°22' W 124°37'0 0.0
2016-Sep-19 12:33N 48°22' W 124°37'0 0.0
2016-Sep-19 11:33N 48°22' W 124°37'0 0.0
2016-Sep-19 09:33N 48°22' W 124°37'0 0.0
2016-Sep-19 07:33N 48°22' W 124°37'0 0.0
2016-Sep-19 06:33N 48°22' W 124°37'0 0.0
2016-Sep-19 03:33N 48°22' W 124°37'0 0.0
2016-Sep-19 02:33N 48°22' W 124°37'0 0.0
2016-Sep-19 00:33N 48°22' W 124°37'0 0.0
2016-Sep-18 19:33N 48°22' W 124°37'0 0.0
2016-Sep-18 15:33N 48°22' W 124°37'0 0.0
2016-Sep-18 14:33N 48°22' W 124°37'0 0.0
2016-Sep-18 10:33N 48°22' W 124°37'0 0.0
2016-Sep-18 09:33N 48°22' W 124°37'0 0.0
2016-Sep-18 02:33N 48°22' W 124°37'0 0.0
2016-Sep-18 01:33N 48°22' W 124°37'0 0.0
2016-Sep-18 00:33N 48°22' W 124°37'0 0.0
2016-Sep-17 22:33N 48°22' W 124°37'0 0.0
2016-Sep-17 21:33N 48°22' W 124°37'0 0.0
2016-Sep-17 20:33N 48°22' W 124°37'0 0.0
2016-Sep-17 19:16N 48°22' W 124°37'0 0.0
2016-Sep-17 13:33N 48°22' W 124°37'0 0.0
2016-Sep-17 12:33N 48°22' W 124°37'0 0.0
2016-Sep-17 10:33N 48°22' W 124°37'0 0.0
2016-Sep-17 09:33N 48°22' W 124°37'0 0.0
2016-Sep-17 08:33N 48°22' W 124°37'0 0.0
2016-Sep-17 07:34N 48°22' W 124°37'0 0.0
2016-Sep-17 05:33N 48°22' W 124°37'0 0.0
2016-Sep-17 04:33N 48°22' W 124°37'0 0.0
2016-Sep-17 00:33N 48°22' W 124°37'0 0.0
2016-Sep-16 17:33N 48°22' W 124°37'0 0.0
2016-Sep-16 15:33N 48°22' W 124°37'0 0.0
2016-Sep-16 12:33N 48°22' W 124°37'0 0.0
2016-Sep-16 09:33N 48°22' W 124°37'0 0.0
2016-Sep-16 07:33N 48°22' W 124°37'0 0.0
2016-Sep-16 03:33N 48°22' W 124°37'4 4.5
2016-Sep-16 02:33N 48°25' W 124°42'18 9.2
2016-Sep-16 00:33N 48°33' W 125°07'19 9.7
2016-Sep-15 22:33N 48°42' W 125°33'10 9.7
2016-Sep-15 21:32N 48°47' W 125°46'10 9.7
2016-Sep-15 20:33N 48°51' W 125°59'  

Dump ship's entire track history